Time;durP1;ratioP1;P1;durP2;ratioP2;P2;SDS_P1;SDS_P2;PMS_P1;PMS_P2;Temp;Humidity;BMP_temperature;BMP_pressure;BME280_temperature;BME280_humidity;BME280_pressure;Samples;Min_cycle;Max_cycle;Signal;HPM_P1;HPM_P2
2021/12/09 00:02:20;;;;;;;26.30;12.10;;;;;;;;;;5007631;28;20109;-76
2021/12/09 00:04:49;;;;;;;25.75;13.20;;;;;;;;;;5014738;28;20038;-75
2021/12/09 00:07:15;;;;;;;25.50;12.85;;;;;;;;;;5014606;28;20034;-77
2021/12/09 00:09:41;;;;;;;22.58;11.25;;;;;;;;;;5012988;28;20022;-77
2021/12/09 00:12:08;;;;;;;24.27;12.35;;;;;;;;;;5015039;28;20035;-76
2021/12/09 00:14:34;;;;;;;21.25;10.80;;;;;;;;;;5018227;28;20045;-76
2021/12/09 00:17:08;;;;;;;22.70;11.25;;;;;;;;;;4992496;28;20404;-76
2021/12/09 00:19:35;;;;;;;19.63;9.52;;;;;;;;;;4991876;28;20488;-76
2021/12/09 00:22:04;;;;;;;20.95;10.40;;;;;;;;;;4991649;28;20038;-76
2021/12/09 00:24:30;;;;;;;20.17;10.27;;;;;;;;;;4992593;28;20049;-76
2021/12/09 00:26:56;;;;;;;21.33;10.52;;;;;;;;;;4991239;28;20057;-76
2021/12/09 00:29:22;;;;;;;18.83;9.23;;;;;;;;;;4992216;28;20031;-75
2021/12/09 00:31:48;;;;;;;25.05;11.32;;;;;;;;;;4992300;28;20045;-77
2021/12/09 00:34:16;;;;;;;21.35;11.27;;;;;;;;;;4992907;28;20034;-76
2021/12/09 00:36:54;;;;;;;20.00;9.73;;;;;;;;;;4992161;28;20046;-77
2021/12/09 00:39:21;;;;;;;20.63;10.68;;;;;;;;;;4990487;28;20053;-76
2021/12/09 00:41:47;;;;;;;24.25;11.00;;;;;;;;;;4990532;28;20492;-76
2021/12/09 00:44:13;;;;;;;20.77;10.70;;;;;;;;;;4992971;28;20046;-76
2021/12/09 00:46:39;;;;;;;22.55;9.85;;;;;;;;;;4992567;28;20092;-77
2021/12/09 00:49:06;;;;;;;19.33;9.82;;;;;;;;;;4992392;28;20234;-76
2021/12/09 00:51:35;;;;;;;21.73;10.40;;;;;;;;;;4974649;28;20520;-76
2021/12/09 00:54:02;;;;;;;16.08;8.70;;;;;;;;;;4972250;28;20482;-75
2021/12/09 00:56:28;;;;;;;18.10;9.43;;;;;;;;;;4972318;28;20035;-76
2021/12/09 00:58:56;;;;;;;15.85;8.80;;;;;;;;;;4986987;28;20109;-77
2021/12/09 01:01:24;;;;;;;16.35;9.65;;;;;;;;;;4972328;28;20405;-76
2021/12/09 01:03:50;;;;;;;22.00;9.88;;;;;;;;;;4972050;28;20043;-76
2021/12/09 01:06:16;;;;;;;16.77;9.82;;;;;;;;;;4971764;28;20042;-76
2021/12/09 01:08:43;;;;;;;17.25;8.50;;;;;;;;;;4970626;28;20042;-76
2021/12/09 01:11:11;;;;;;;17.33;8.63;;;;;;;;;;4978212;28;20042;-76
2021/12/09 01:13:37;;;;;;;18.80;8.25;;;;;;;;;;4990998;28;20049;-76
2021/12/09 01:16:04;;;;;;;18.77;9.07;;;;;;;;;;4991489;28;20045;-76
2021/12/09 01:18:30;;;;;;;16.55;8.88;;;;;;;;;;4991423;28;20038;-76
2021/12/09 01:20:58;;;;;;;19.48;9.63;;;;;;;;;;4991500;28;20616;-76
2021/12/09 01:23:24;;;;;;;17.40;8.85;;;;;;;;;;4989767;28;20396;-76
2021/12/09 01:25:58;;;;;;;20.10;7.93;;;;;;;;;;4990911;28;20065;-76
2021/12/09 01:28:28;;;;;;;15.73;8.13;;;;;;;;;;4990981;28;20535;-76
2021/12/09 01:31:01;;;;;;;18.20;8.23;;;;;;;;;;4991130;28;20047;-76
2021/12/09 01:33:32;;;;;;;17.77;8.30;;;;;;;;;;4991081;28;20042;-76
2021/12/09 01:35:58;;;;;;;17.60;7.72;;;;;;;;;;4991139;28;20382;-76
2021/12/09 01:38:27;;;;;;;19.05;8.50;;;;;;;;;;4989626;28;20042;-76
2021/12/09 01:40:55;;;;;;;17.52;7.78;;;;;;;;;;4990927;28;20054;-76
2021/12/09 01:43:22;;;;;;;15.52;6.82;;;;;;;;;;4991422;28;20505;-76
2021/12/09 01:45:48;;;;;;;18.52;7.95;;;;;;;;;;4991449;28;20053;-76
2021/12/09 01:48:14;;;;;;;19.00;7.13;;;;;;;;;;4992931;28;20043;-76
2021/12/09 01:50:40;;;;;;;15.15;7.35;;;;;;;;;;4983923;28;20054;-76
2021/12/09 01:53:07;;;;;;;15.07;6.97;;;;;;;;;;4975254;28;20311;-77
2021/12/09 01:55:34;;;;;;;15.50;7.55;;;;;;;;;;4974918;28;20058;-76
2021/12/09 01:58:00;;;;;;;17.08;7.85;;;;;;;;;;4975035;28;20042;-74
2021/12/09 02:00:29;;;;;;;20.25;7.80;;;;;;;;;;4973241;28;20051;-76
2021/12/09 02:02:58;;;;;;;15.88;7.22;;;;;;;;;;4974514;28;20517;-76
2021/12/09 02:05:27;;;;;;;17.58;7.50;;;;;;;;;;4974670;28;20047;-76
2021/12/09 02:07:53;;;;;;;14.05;6.22;;;;;;;;;;4974485;28;20506;-76
2021/12/09 02:10:20;;;;;;;18.30;6.82;;;;;;;;;;4974765;28;20167;-76
2021/12/09 02:12:48;;;;;;;16.30;6.88;;;;;;;;;;4974504;28;20066;-77
2021/12/09 02:15:15;;;;;;;15.90;7.22;;;;;;;;;;4974347;28;20367;-77
2021/12/09 02:17:41;;;;;;;18.13;7.32;;;;;;;;;;4977492;28;20038;-76
2021/12/09 02:20:08;;;;;;;15.82;7.03;;;;;;;;;;4992457;28;20034;-76
2021/12/09 02:22:35;;;;;;;14.43;7.50;;;;;;;;;;4994185;28;20049;-76
2021/12/09 02:25:01;;;;;;;15.80;7.13;;;;;;;;;;4993846;28;20516;-76
2021/12/09 02:27:27;;;;;;;14.70;6.85;;;;;;;;;;4993991;28;20484;-76
2021/12/09 02:29:55;;;;;;;19.13;7.45;;;;;;;;;;4994035;28;20039;-76
2021/12/09 02:32:22;;;;;;;15.57;6.95;;;;;;;;;;4994054;28;20433;-76
2021/12/09 02:34:48;;;;;;;19.98;8.80;;;;;;;;;;4993975;28;20061;-77
2021/12/09 02:37:14;;;;;;;18.38;8.65;;;;;;;;;;4993391;28;20034;-77
2021/12/09 02:39:42;;;;;;;21.63;9.52;;;;;;;;;;4993067;28;20026;-76
2021/12/09 02:42:09;;;;;;;17.20;7.38;;;;;;;;;;4993315;28;20030;-77
2021/12/09 02:44:35;;;;;;;15.35;7.03;;;;;;;;;;4992500;28;20049;-76
2021/12/09 02:47:02;;;;;;;17.58;6.75;;;;;;;;;;4993499;28;20046;-76
2021/12/09 02:49:30;;;;;;;14.80;6.68;;;;;;;;;;4993401;28;20400;-76
2021/12/09 02:51:58;;;;;;;14.93;7.38;;;;;;;;;;4993262;28;20507;-76
2021/12/09 02:54:25;;;;;;;19.77;7.07;;;;;;;;;;4993154;28;20064;-74
2021/12/09 02:56:54;;;;;;;15.98;7.15;;;;;;;;;;4992850;28;20061;-76
2021/12/09 02:59:20;;;;;;;16.52;7.13;;;;;;;;;;4991071;28;20039;-76
2021/12/09 03:02:00;;;;;;;18.13;7.80;;;;;;;;;;4992625;28;20042;-76
2021/12/09 03:04:47;;;;;;;16.83;7.55;;;;;;;;;;4991683;28;20381;-76
2021/12/09 03:07:28;;;;;;;21.17;7.32;;;;;;;;;;4992873;28;20046;-76
2021/12/09 03:09:56;;;;;;;;;;;;;;;;;;4993430;28;20050;-76
2021/12/09 03:12:31;;;;;;;15.50;7.15;;;;;;;;;;4992302;28;19914;-76
2021/12/09 03:14:58;;;;;;;18.13;7.13;;;;;;;;;;4992357;28;20045;-75
2021/12/09 03:17:24;;;;;;;18.80;7.82;;;;;;;;;;4992137;28;20405;-75
2021/12/09 03:19:50;;;;;;;17.17;7.78;;;;;;;;;;4990756;28;20512;-74
2021/12/09 03:22:17;;;;;;;15.50;6.85;;;;;;;;;;4992048;28;20050;-76
2021/12/09 03:24:46;;;;;;;17.88;7.32;;;;;;;;;;4992040;28;20034;-76
2021/12/09 03:27:13;;;;;;;17.60;6.82;;;;;;;;;;4990513;28;20519;-76
2021/12/09 03:29:42;;;;;;;14.15;6.53;;;;;;;;;;4991846;28;20041;-76
2021/12/09 03:32:13;;;;;;;18.95;7.13;;;;;;;;;;4992254;28;20049;-76
2021/12/09 03:34:44;;;;;;;19.17;7.40;;;;;;;;;;4991898;28;20038;-76
2021/12/09 03:37:13;;;;;;;16.37;7.40;;;;;;;;;;4974781;28;20037;-76
2021/12/09 03:39:41;;;;;;;15.30;6.38;;;;;;;;;;4992743;28;20042;-76
2021/12/09 03:42:10;;;;;;;18.30;6.90;;;;;;;;;;4992711;28;20049;-76
2021/12/09 03:44:37;;;;;;;17.23;7.20;;;;;;;;;;4992204;28;20484;-75
2021/12/09 03:47:09;;;;;;;16.20;6.75;;;;;;;;;;4992182;28;20044;-74
2021/12/09 03:49:36;;;;;;;14.98;6.50;;;;;;;;;;4992316;28;20472;-74
2021/12/09 03:52:02;;;;;;;16.23;7.20;;;;;;;;;;4992025;28;20042;-74
2021/12/09 03:54:28;;;;;;;19.15;7.25;;;;;;;;;;4992116;28;20045;-75
2021/12/09 03:56:55;;;;;;;16.67;7.15;;;;;;;;;;4992069;28;20045;-74
2021/12/09 03:59:21;;;;;;;15.45;7.20;;;;;;;;;;4992245;28;20043;-74
2021/12/09 04:01:48;;;;;;;20.13;6.70;;;;;;;;;;4992039;28;20053;-75
2021/12/09 04:04:15;;;;;;;15.52;6.88;;;;;;;;;;4991939;28;20034;-75
2021/12/09 04:06:41;;;;;;;18.23;8.50;;;;;;;;;;4991890;28;20038;-75
2021/12/09 04:09:09;;;;;;;14.20;7.38;;;;;;;;;;4992083;28;20061;-75
2021/12/09 04:11:36;;;;;;;18.45;7.07;;;;;;;;;;4991535;28;20030;-75
2021/12/09 04:14:03;;;;;;;20.55;8.18;;;;;;;;;;4991328;28;20026;-75
2021/12/09 04:16:29;;;;;;;21.40;8.13;;;;;;;;;;4991225;28;20038;-75
2021/12/09 04:18:56;;;;;;;19.70;8.15;;;;;;;;;;4991250;28;20037;-75
2021/12/09 04:21:22;;;;;;;21.55;9.65;;;;;;;;;;4991308;28;20210;-76
2021/12/09 04:23:48;;;;;;;16.02;8.02;;;;;;;;;;4991324;28;20046;-75
2021/12/09 04:26:13;;;;;;;19.85;9.02;;;;;;;;;;4989978;28;20042;-75
2021/12/09 04:28:40;;;;;;;19.38;8.57;;;;;;;;;;4989767;28;20081;-75
2021/12/09 04:31:06;;;;;;;20.02;9.45;;;;;;;;;;4989865;28;20373;-75
2021/12/09 04:33:33;;;;;;;20.08;10.05;;;;;;;;;;4991459;28;20038;-75
2021/12/09 04:35:59;;;;;;;24.92;9.80;;;;;;;;;;4991577;28;20038;-75
2021/12/09 04:38:26;;;;;;;25.00;10.50;;;;;;;;;;4991738;28;20038;-75
2021/12/09 04:40:52;;;;;;;20.30;9.32;;;;;;;;;;4991526;28;20049;-75
2021/12/09 04:43:18;;;;;;;22.77;9.45;;;;;;;;;;4991157;28;20034;-75
2021/12/09 04:45:44;;;;;;;17.88;8.07;;;;;;;;;;4991082;28;20073;-76
2021/12/09 04:48:10;;;;;;;20.52;8.52;;;;;;;;;;4989393;28;20034;-75
2021/12/09 04:50:38;;;;;;;17.88;8.38;;;;;;;;;;4990402;28;20446;-75
2021/12/09 04:53:05;;;;;;;18.63;7.60;;;;;;;;;;4990923;28;20049;-76
2021/12/09 04:55:32;;;;;;;16.42;7.47;;;;;;;;;;4991171;28;20035;-76
2021/12/09 04:57:59;;;;;;;17.27;7.28;;;;;;;;;;4990978;28;20042;-76
2021/12/09 05:00:28;;;;;;;16.77;7.07;;;;;;;;;;4990793;28;20057;-75
2021/12/09 05:05:23;;;;;;;15.80;6.70;;;;;;;;;;4991230;28;20026;-75
2021/12/09 05:07:49;;;;;;;14.35;7.07;;;;;;;;;;4990420;28;20030;-76
2021/12/09 05:10:15;;;;;;;16.15;6.82;;;;;;;;;;4991811;28;20034;-76
2021/12/09 05:12:41;;;;;;;17.20;7.28;;;;;;;;;;4991516;28;20034;-76
2021/12/09 05:15:09;;;;;;;14.75;6.30;;;;;;;;;;4991041;28;20039;-76
2021/12/09 05:17:35;;;;;;;12.90;6.07;;;;;;;;;;4990277;28;20038;-76
2021/12/09 05:20:02;;;;;;;15.48;6.10;;;;;;;;;;4990442;28;20531;-76
2021/12/09 05:22:28;;;;;;;14.52;5.75;;;;;;;;;;4989046;28;20042;-77
2021/12/09 05:24:56;;;;;;;11.35;5.75;;;;;;;;;;4991464;28;20034;-77
2021/12/09 05:27:22;;;;;;;17.85;6.28;;;;;;;;;;4991055;28;20042;-74
2021/12/09 05:30:03;;;;;;;15.23;5.90;;;;;;;;;;4995413;28;20038;-75
2021/12/09 05:32:29;;;;;;;14.20;5.90;;;;;;;;;;4994379;28;20053;-76
2021/12/09 05:34:56;;;;;;;14.10;5.80;;;;;;;;;;4994705;28;20456;-75
2021/12/09 05:37:24;;;;;;;20.45;7.30;;;;;;;;;;4994737;28;20053;-75
2021/12/09 05:39:52;;;;;;;13.10;6.32;;;;;;;;;;4995914;28;20045;-80
2021/12/09 05:42:20;;;;;;;20.05;8.25;;;;;;;;;;4995657;28;20046;-74
2021/12/09 05:44:46;;;;;;;14.00;7.15;;;;;;;;;;4995579;28;20049;-74
2021/12/09 05:47:12;;;;;;;13.95;6.22;;;;;;;;;;4993257;28;20034;-75
2021/12/09 05:49:41;;;;;;;18.23;6.43;;;;;;;;;;4993747;28;20034;-75
2021/12/09 05:52:08;;;;;;;17.23;6.38;;;;;;;;;;4991020;28;20053;-75
2021/12/09 05:54:34;;;;;;;15.43;6.70;;;;;;;;;;4991655;28;20036;-74
2021/12/09 05:57:00;;;;;;;12.27;5.78;;;;;;;;;;4993628;28;20492;-74
2021/12/09 05:59:27;;;;;;;19.55;7.00;;;;;;;;;;4994242;28;20125;-74
2021/12/09 06:01:53;;;;;;;12.90;6.40;;;;;;;;;;4994169;28;20484;-74
2021/12/09 06:04:21;;;;;;;16.85;6.28;;;;;;;;;;4994144;28;20065;-75
2021/12/09 06:06:48;;;;;;;15.02;6.40;;;;;;;;;;4994264;28;20042;-72
2021/12/09 06:09:14;;;;;;;37.00;17.52;;;;;;;;;;4994362;28;20045;-74
2021/12/09 06:11:44;;;;;;;23.60;12.48;;;;;;;;;;4989899;28;20046;-76
2021/12/09 06:14:10;;;;;;;18.25;6.53;;;;;;;;;;4981598;28;20046;-75
2021/12/09 06:16:36;;;;;;;14.55;6.45;;;;;;;;;;4974872;28;20097;-75
2021/12/09 06:19:02;;;;;;;15.35;6.35;;;;;;;;;;4975152;28;20071;-75
2021/12/09 06:21:29;;;;;;;14.43;5.93;;;;;;;;;;4974917;28;20058;-75
2021/12/09 06:23:56;;;;;;;15.68;6.43;;;;;;;;;;4974886;28;20058;-75
2021/12/09 06:26:22;;;;;;;14.23;5.55;;;;;;;;;;4974913;28;20054;-76
2021/12/09 06:28:49;;;;;;;11.80;5.88;;;;;;;;;;4991030;28;20054;-76
2021/12/09 06:31:15;;;;;;;12.32;5.95;;;;;;;;;;4993717;28;20373;-76
2021/12/09 06:33:41;;;;;;;15.07;6.45;;;;;;;;;;4990527;28;20042;-76
2021/12/09 06:36:07;;;;;;;14.88;5.70;;;;;;;;;;4990236;28;20118;-76
2021/12/09 06:38:33;;;;;;;16.48;5.72;;;;;;;;;;4973904;28;20089;-76
2021/12/09 06:41:00;;;;;;;14.68;6.45;;;;;;;;;;4985487;28;20042;-75
2021/12/09 06:43:27;;;;;;;12.38;5.95;;;;;;;;;;4991120;28;20038;-75
2021/12/09 06:45:55;;;;;;;13.90;5.75;;;;;;;;;;4988424;28;20053;-75
2021/12/09 06:48:21;;;;;;;12.50;5.72;;;;;;;;;;4983881;28;20043;-75
2021/12/09 06:50:50;;;;;;;13.82;5.95;;;;;;;;;;4981600;28;20043;-75
2021/12/09 06:53:16;;;;;;;12.10;5.95;;;;;;;;;;4993285;28;20064;-75
2021/12/09 06:55:43;;;;;;;14.80;5.95;;;;;;;;;;4994080;28;20046;-75
2021/12/09 06:58:09;;;;;;;12.98;5.75;;;;;;;;;;4975910;28;20038;-75
2021/12/09 07:00:41;;;;;;;15.18;6.18;;;;;;;;;;4988846;28;20039;-76
2021/12/09 07:03:10;;;;;;;17.63;7.15;;;;;;;;;;4983726;28;20050;-75
2021/12/09 07:05:37;;;;;;;19.20;9.48;;;;;;;;;;4982028;28;20047;-75
2021/12/09 07:08:04;;;;;;;39.65;19.70;;;;;;;;;;4993834;28;20562;-75
2021/12/09 07:10:33;;;;;;;23.52;10.80;;;;;;;;;;5004008;28;20010;-75
2021/12/09 07:12:59;;;;;;;19.63;8.07;;;;;;;;;;5014042;28;20056;-75
2021/12/09 07:15:25;;;;;;;21.23;7.90;;;;;;;;;;5014153;28;20046;-74
2021/12/09 07:17:51;;;;;;;18.08;7.07;;;;;;;;;;5011910;28;20038;-75
2021/12/09 07:20:19;;;;;;;18.52;8.88;;;;;;;;;;5007121;28;20041;-75
2021/12/09 07:22:48;;;;;;;18.55;8.75;;;;;;;;;;4999004;28;20042;-74
2021/12/09 07:25:15;;;;;;;16.10;8.43;;;;;;;;;;5001239;28;20053;-74
2021/12/09 07:27:41;;;;;;;16.70;7.82;;;;;;;;;;5003230;28;20387;-75
2021/12/09 07:30:09;;;;;;;38.35;30.23;;;;;;;;;;4998078;28;20041;-75
2021/12/09 07:32:35;;;;;;;24.77;14.60;;;;;;;;;;5006973;28;20018;-76
2021/12/09 07:35:03;;;;;;;24.25;11.10;;;;;;;;;;5013783;28;20520;-75
2021/12/09 07:37:29;;;;;;;17.40;11.27;;;;;;;;;;5014556;28;20041;-74
2021/12/09 07:39:55;;;;;;;21.35;10.68;;;;;;;;;;5004182;28;20416;-75
2021/12/09 07:42:22;;;;;;;17.50;10.15;;;;;;;;;;4994173;28;20160;-76
2021/12/09 07:44:48;;;;;;;17.10;9.27;;;;;;;;;;4979278;28;20035;-75
2021/12/09 07:47:14;;;;;;;19.45;9.57;;;;;;;;;;4983051;28;20357;-76
2021/12/09 07:49:40;;;;;;;16.63;8.55;;;;;;;;;;4993223;28;20049;-74
2021/12/09 07:52:06;;;;;;;13.43;7.55;;;;;;;;;;4993841;28;20129;-75
2021/12/09 07:54:32;;;;;;;29.80;15.63;;;;;;;;;;4994069;28;20524;-75
2021/12/09 07:56:58;;;;;;;19.17;8.77;;;;;;;;;;5025161;28;20058;-74
2021/12/09 07:59:24;;;;;;;23.88;9.60;;;;;;;;;;4989186;28;20074;-75
2021/12/09 08:01:50;;;;;;;17.33;7.57;;;;;;;;;;4981418;28;20038;-75
2021/12/09 08:04:16;;;;;;;18.70;8.05;;;;;;;;;;4994099;28;20400;-74
2021/12/09 08:06:43;;;;;;;19.85;7.88;;;;;;;;;;4993198;28;20057;-74
2021/12/09 08:09:09;;;;;;;16.17;8.73;;;;;;;;;;4976701;28;20039;-75
2021/12/09 08:11:37;;;;;;;15.43;7.22;;;;;;;;;;4992609;28;20034;-75
2021/12/09 08:14:11;;;;;;;16.98;7.95;;;;;;;;;;4983400;28;20035;-76
2021/12/09 08:16:39;;;;;;;14.52;7.53;;;;;;;;;;4969975;28;20038;-77
2021/12/09 08:19:07;;;;;;;14.15;7.40;;;;;;;;;;4974310;28;20034;-79
2021/12/09 08:21:35;;;;;;;14.90;8.65;;;;;;;;;;4989661;28;20046;-74
2021/12/09 08:24:05;;;;;;;14.20;6.80;;;;;;;;;;4979809;28;20046;-74
2021/12/09 08:26:32;;;;;;;13.60;7.10;;;;;;;;;;4986794;28;20621;-74
2021/12/09 08:28:58;;;;;;;18.98;7.85;;;;;;;;;;4982626;28;20113;-75
2021/12/09 08:31:27;;;;;;;15.88;7.28;;;;;;;;;;4989750;28;20042;-75
2021/12/09 08:33:53;;;;;;;19.02;7.38;;;;;;;;;;4989593;28;20042;-75
2021/12/09 08:36:19;;;;;;;15.75;6.78;;;;;;;;;;4989465;28;20141;-75
2021/12/09 08:38:45;;;;;;;14.45;7.18;;;;;;;;;;4989825;28;20042;-76
2021/12/09 08:41:14;;;;;;;20.77;7.05;;;;;;;;;;4990424;28;20076;-76
2021/12/09 08:43:40;;;;;;;14.88;6.50;;;;;;;;;;4989893;28;20536;-76
2021/12/09 08:46:06;;;;;;;12.73;6.07;;;;;;;;;;4989670;28;20046;-75
2021/12/09 08:48:32;;;;;;;19.33;6.13;;;;;;;;;;4989717;28;20077;-79
2021/12/09 08:50:58;;;;;;;13.68;5.45;;;;;;;;;;4988020;28;20026;-79
2021/12/09 08:53:25;;;;;;;14.82;5.43;;;;;;;;;;4972619;28;20128;-80
2021/12/09 08:55:52;;;;;;;14.25;6.05;;;;;;;;;;4989340;28;20038;-79
2021/12/09 08:58:19;;;;;;;14.40;5.93;;;;;;;;;;4989953;28;20515;-81
2021/12/09 09:00:46;;;;;;;13.35;6.07;;;;;;;;;;4989779;28;20026;-81
2021/12/09 09:03:13;;;;;;;14.20;5.43;;;;;;;;;;4990262;28;20432;-80
2021/12/09 09:05:41;;;;;;;17.27;9.07;;;;;;;;;;4989527;28;20042;-80
2021/12/09 09:08:07;;;;;;;17.67;8.25;;;;;;;;;;4981428;28;20033;-79
2021/12/09 09:10:36;;;;;;;15.75;5.55;;;;;;;;;;4983211;28;20031;-75
2021/12/09 09:13:03;;;;;;;11.23;5.45;;;;;;;;;;4989981;28;20046;-78
2021/12/09 09:15:31;;;;;;;13.10;6.18;;;;;;;;;;4988780;28;20523;-76
2021/12/09 09:17:59;;;;;;;14.77;5.47;;;;;;;;;;4989791;28;20057;-79
2021/12/09 09:20:28;;;;;;;13.18;6.43;;;;;;;;;;4989498;28;20034;-78
2021/12/09 09:22:54;;;;;;;14.85;5.68;;;;;;;;;;4989733;28;20045;-78
2021/12/09 09:25:28;;;;;;;12.68;5.20;;;;;;;;;;4990906;28;20173;-78
2021/12/09 09:27:57;;;;;;;17.67;5.40;;;;;;;;;;4990524;28;20054;-79
2021/12/09 09:30:25;;;;;;;10.88;4.85;;;;;;;;;;4989946;28;20043;-79
2021/12/09 09:32:51;;;;;;;10.07;4.90;;;;;;;;;;4991012;28;20503;-79
2021/12/09 09:35:18;;;;;;;11.65;4.85;;;;;;;;;;4991277;28;20061;-79
2021/12/09 09:37:44;;;;;;;10.73;4.65;;;;;;;;;;4990578;28;20049;-79
2021/12/09 09:40:14;;;;;;;6.20;3.90;;;;;;;;;;4990806;28;20523;-79
2021/12/09 09:45:12;;;;;;;11.05;4.80;;;;;;;;;;4990755;28;20042;-78
2021/12/09 09:47:38;;;;;;;8.75;4.25;;;;;;;;;;4990649;28;20043;-80
2021/12/09 09:50:10;;;;;;;9.38;4.20;;;;;;;;;;4990977;28;20042;-78
2021/12/09 09:52:38;;;;;;;8.88;4.20;;;;;;;;;;4990963;28;20053;-78
2021/12/09 09:55:08;;;;;;;10.10;4.10;;;;;;;;;;4989967;28;20038;-78
2021/12/09 09:57:35;;;;;;;12.63;4.32;;;;;;;;;;4990515;28;20047;-78
2021/12/09 10:00:05;;;;;;;14.38;4.15;;;;;;;;;;4990348;28;20388;-78
2021/12/09 10:02:31;;;;;;;14.27;4.25;;;;;;;;;;4988688;28;20042;-78
2021/12/09 10:05:02;;;;;;;10.35;4.45;;;;;;;;;;4989347;28;20227;-77
2021/12/09 10:07:30;;;;;;;11.45;5.10;;;;;;;;;;4987678;28;20065;-77
2021/12/09 10:09:56;;;;;;;10.20;4.32;;;;;;;;;;4987461;28;20027;-78
2021/12/09 10:12:22;;;;;;;13.85;5.32;;;;;;;;;;4991422;28;20097;-78
2021/12/09 10:14:51;;;;;;;11.95;4.57;;;;;;;;;;4993972;28;20040;-78
2021/12/09 10:17:21;;;;;;;10.52;4.18;;;;;;;;;;4994891;28;20079;-78
2021/12/09 10:19:47;;;;;;;9.55;4.38;;;;;;;;;;4994158;28;20515;-78
2021/12/09 10:22:21;;;;;;;18.52;6.88;;;;;;;;;;4994238;28;20038;-78
2021/12/09 10:24:50;;;;;;;8.35;4.10;;;;;;;;;;4993197;28;20042;-78
2021/12/09 10:27:24;;;;;;;10.68;3.72;;;;;;;;;;4994047;28;20484;-78
2021/12/09 10:29:55;;;;;;;8.88;3.60;;;;;;;;;;4991076;28;20050;-78
2021/12/09 10:32:27;;;;;;;17.52;7.55;;;;;;;;;;4992665;28;20060;-78
2021/12/09 10:34:53;;;;;;;12.27;4.32;;;;;;;;;;4993078;28;20034;-78
2021/12/09 10:37:29;;;;;;;14.23;4.07;;;;;;;;;;4993172;28;20089;-78
2021/12/09 10:40:02;;;;;;;13.63;5.72;;;;;;;;;;4993396;28;20393;-77
2021/12/09 10:42:37;;;;;;;12.30;4.65;;;;;;;;;;4992213;28;20404;-78
2021/12/09 10:45:07;;;;;;;9.88;4.43;;;;;;;;;;4993938;28;20034;-78
2021/12/09 10:47:49;;;;;;;15.85;8.07;;;;;;;;;;4991158;28;20038;-78
2021/12/09 10:53:50;;;;;;;9.63;3.88;;;;;;;;;;4973945;28;20097;-78
2021/12/09 10:56:28;;;;;;;11.55;3.97;;;;;;;;;;4982566;28;20042;-78
2021/12/09 10:58:54;;;;;;;17.00;5.10;;;;;;;;;;4992565;28;20041;-78
2021/12/09 11:01:22;;;;;;;10.27;4.85;;;;;;;;;;4993089;28;20058;-78
2021/12/09 11:03:50;;;;;;;10.35;4.32;;;;;;;;;;4989572;28;20022;-78
2021/12/09 11:06:20;;;;;;;8.48;4.38;;;;;;;;;;4993294;28;20041;-78
2021/12/09 11:08:50;;;;;;;10.48;4.35;;;;;;;;;;4993072;28;20030;-78
2021/12/09 11:11:17;;;;;;;10.07;4.20;;;;;;;;;;4992949;28;20373;-78
2021/12/09 11:13:53;;;;;;;10.65;4.50;;;;;;;;;;4991479;28;20569;-78
2021/12/09 11:16:31;;;;;;;11.45;4.93;;;;;;;;;;4993182;28;20535;-79
2021/12/09 11:19:19;;;;;;;9.18;4.40;;;;;;;;;;4993290;28;20503;-79
2021/12/09 11:21:59;;;;;;;13.57;4.30;;;;;;;;;;4993601;28;20425;-79
2021/12/09 11:24:30;;;;;;;9.15;4.07;;;;;;;;;;4992314;28;20485;-79
2021/12/09 11:27:08;;;;;;;7.50;3.78;;;;;;;;;;4993368;28;20050;-79
2021/12/09 11:29:47;;;;;;;11.25;4.32;;;;;;;;;;4992733;28;20049;-79
2021/12/09 11:32:50;;;;;;;13.55;6.75;;;;;;;;;;4992525;28;20045;-79
2021/12/09 11:35:26;;;;;;;14.23;4.18;;;;;;;;;;4992166;28;20046;-79
2021/12/09 11:38:07;;;;;;;11.02;3.92;;;;;;;;;;4991736;28;20038;-79
2021/12/09 11:43:06;;;;;;;9.23;3.20;;;;;;;;;;4990403;28;20038;-79
2021/12/09 11:45:35;;;;;;;9.60;4.07;;;;;;;;;;4990465;28;20046;-79
2021/12/09 11:48:04;;;;;;;15.90;4.05;;;;;;;;;;4992368;28;20045;-78
2021/12/09 11:50:33;;;;;;;10.38;3.58;;;;;;;;;;4992188;28;20477;-78
2021/12/09 11:53:02;;;;;;;10.63;3.42;;;;;;;;;;4992191;28;20385;-78
2021/12/09 11:55:36;;;;;;;7.68;3.17;;;;;;;;;;4992548;28;20038;-79
2021/12/09 11:58:28;;;;;;;9.25;3.38;;;;;;;;;;4992144;28;20464;-79
2021/12/09 12:18:17;;;;;;;11.90;3.60;;;;;;;;;;4990125;28;20393;-78
2021/12/09 12:20:54;;;;;;;11.57;3.53;;;;;;;;;;4991652;28;20206;-79
2021/12/09 12:32:21;;;;;;;9.75;3.28;;;;;;;;;;4991603;28;20053;-79
2021/12/09 12:35:42;;;;;;;11.23;3.83;;;;;;;;;;4988296;28;20034;-78
2021/12/09 12:41:02;;;;;;;14.45;3.70;;;;;;;;;;4993424;28;20030;-77
2021/12/09 12:43:34;;;;;;;9.10;3.30;;;;;;;;;;5003996;28;20088;-76
2021/12/09 12:46:12;;;;;;;9.27;3.97;;;;;;;;;;4997997;28;20197;-78
2021/12/09 12:51:09;;;;;;;11.30;3.60;;;;;;;;;;4994786;28;20033;-78
2021/12/09 12:53:42;;;;;;;9.85;3.60;;;;;;;;;;4991263;28;20046;-78
2021/12/09 12:56:18;;;;;;;12.85;4.18;;;;;;;;;;4989721;28;20413;-79
2021/12/09 13:01:41;;;;;;;12.57;5.68;;;;;;;;;;4991778;28;20064;-79
2021/12/09 13:04:27;;;;;;;18.73;8.25;;;;;;;;;;4991400;28;20511;-79
2021/12/09 13:06:59;;;;;;;10.25;4.03;;;;;;;;;;4991175;28;20050;-79
2021/12/09 13:09:37;;;;;;;13.43;4.90;;;;;;;;;;4989126;28;20038;-76
2021/12/09 13:12:08;;;;;;;12.88;5.00;;;;;;;;;;4991481;28;20061;-77
2021/12/09 13:14:54;;;;;;;14.65;5.20;;;;;;;;;;4991091;28;20046;-75
2021/12/09 13:17:36;;;;;;;11.52;5.10;;;;;;;;;;4990058;28;20608;-74
2021/12/09 13:20:10;;;;;;;12.98;4.95;;;;;;;;;;4990331;28;20042;-75
2021/12/09 13:22:39;;;;;;;10.18;4.75;;;;;;;;;;4989290;28;20193;-73
2021/12/09 13:25:18;;;;;;;13.77;4.72;;;;;;;;;;4990460;28;20042;-74
2021/12/09 13:36:37;;;;;;;14.43;6.65;;;;;;;;;;4991315;28;20042;-74
2021/12/09 13:47:35;;;;;;;17.02;6.93;;;;;;;;;;4991084;28;20038;-74
2021/12/09 13:55:33;;;;;;;12.90;5.88;;;;;;;;;;4992357;28;20023;-75
2021/12/09 13:58:01;;;;;;;11.60;5.75;;;;;;;;;;4991904;28;20034;-75
2021/12/09 14:00:27;;;;;;;15.75;5.60;;;;;;;;;;4991946;28;20030;-74
2021/12/09 14:03:09;;;;;;;17.25;6.03;;;;;;;;;;4994512;28;20045;-75
2021/12/09 14:06:08;;;;;;;16.85;6.40;;;;;;;;;;4994553;28;20392;-76
2021/12/09 14:08:53;;;;;;;12.80;5.85;;;;;;;;;;4993620;28;20038;-75
2021/12/09 14:11:26;;;;;;;15.18;5.90;;;;;;;;;;4992004;28;20034;-75
2021/12/09 14:14:03;;;;;;;14.68;6.03;;;;;;;;;;4992284;28;20049;-75
2021/12/09 14:16:42;;;;;;;13.30;6.25;;;;;;;;;;4991195;28;20400;-74
2021/12/09 14:21:34;;;;;;;15.80;6.30;;;;;;;;;;4993962;28;20029;-74
2021/12/09 14:24:17;;;;;;;15.90;6.50;;;;;;;;;;4991910;28;20390;-74
2021/12/09 14:26:51;;;;;;;14.98;6.18;;;;;;;;;;4993401;28;20042;-75
2021/12/09 14:29:17;;;;;;;16.38;6.45;;;;;;;;;;4993952;28;20531;-75
2021/12/09 14:31:46;;;;;;;14.93;5.65;;;;;;;;;;4993016;28;20034;-74
2021/12/09 14:34:16;;;;;;;19.15;6.88;;;;;;;;;;4993644;28;20480;-74
2021/12/09 14:36:43;;;;;;;16.20;6.75;;;;;;;;;;4991489;28;20061;-73
2021/12/09 14:39:12;;;;;;;14.45;5.85;;;;;;;;;;4994647;28;20038;-73
2021/12/09 14:41:39;;;;;;;16.05;5.85;;;;;;;;;;4994371;28;20057;-73
2021/12/09 14:44:08;;;;;;;15.15;6.00;;;;;;;;;;4994191;28;20038;-75
2021/12/09 14:46:39;;;;;;;12.27;5.25;;;;;;;;;;4994429;28;20046;-76
2021/12/09 14:49:15;;;;;;;12.43;5.83;;;;;;;;;;4996059;28;20055;-76
2021/12/09 14:51:43;;;;;;;13.23;5.90;;;;;;;;;;4994986;28;20453;-74
2021/12/09 14:54:11;;;;;;;13.73;5.32;;;;;;;;;;5008314;28;20039;-73
2021/12/09 14:56:41;;;;;;;18.63;5.70;;;;;;;;;;5011037;28;20034;-74
2021/12/09 14:59:28;;;;;;;14.85;6.13;;;;;;;;;;5004376;28;20042;-73
2021/12/09 15:02:21;;;;;;;10.60;5.47;;;;;;;;;;5005578;28;20050;-73
2021/12/09 15:04:53;;;;;;;14.13;6.00;;;;;;;;;;5005192;28;20050;-75
2021/12/09 15:07:32;;;;;;;17.48;6.05;;;;;;;;;;5005151;28;20045;-74
2021/12/09 15:10:09;;;;;;;14.93;6.22;;;;;;;;;;5004710;28;20042;-73
2021/12/09 15:12:37;;;;;;;11.15;6.82;;;;;;;;;;5002863;28;20040;-74
2021/12/09 15:15:06;;;;;;;14.10;6.53;;;;;;;;;;5002453;28;20039;-75
2021/12/09 15:17:34;;;;;;;15.80;6.90;;;;;;;;;;4997906;28;20042;-74
2021/12/09 15:20:07;;;;;;;19.20;7.60;;;;;;;;;;5007781;28;20468;-74
2021/12/09 15:23:07;;;;;;;16.30;6.50;;;;;;;;;;5005575;28;20050;-73
2021/12/09 15:25:38;;;;;;;15.68;6.32;;;;;;;;;;4999427;28;20049;-74
2021/12/09 15:28:14;;;;;;;;;;;;;;;;;;4994430;28;20022;-74
2021/12/09 15:30:48;;;;;;;14.07;5.90;;;;;;;;;;5009257;28;19918;-74
2021/12/09 15:33:35;;;;;;;12.75;5.80;;;;;;;;;;4994390;28;20388;-73
2021/12/09 15:36:11;;;;;;;18.23;6.55;;;;;;;;;;4993793;28;20054;-74
2021/12/09 15:38:55;;;;;;;18.95;6.20;;;;;;;;;;4994562;28;20038;-75
2021/12/09 15:41:32;;;;;;;14.57;6.07;;;;;;;;;;4994843;28;20049;-75
2021/12/09 15:44:02;;;;;;;15.57;5.80;;;;;;;;;;4994285;28;20039;-76
2021/12/09 15:46:28;;;;;;;19.85;6.80;;;;;;;;;;4993445;28;20034;-75
2021/12/09 15:49:12;;;;;;;18.83;6.35;;;;;;;;;;4994052;28;20066;-74
2021/12/09 15:51:39;;;;;;;16.95;6.80;;;;;;;;;;4995493;28;20045;-75
2021/12/09 15:54:05;;;;;;;15.50;6.25;;;;;;;;;;4994088;28;20066;-75
2021/12/09 15:56:45;;;;;;;15.18;6.68;;;;;;;;;;4993568;28;20041;-75